sensor_id;sensor_type;location;lat;lon;timestamp;P1;durP1;ratioP1;P2;durP2;ratioP2
19087;SDS011;9676;50.916;13.352;2023-04-06T00:02:48;10.70;;;9.70;;
19087;SDS011;9676;50.916;13.352;2023-04-06T00:05:37;10.60;;;9.70;;
19087;SDS011;9676;50.916;13.352;2023-04-06T00:08:27;10.80;;;9.90;;
19087;SDS011;9676;50.916;13.352;2023-04-06T00:11:17;10.80;;;9.80;;
19087;SDS011;9676;50.916;13.352;2023-04-06T00:14:07;10.70;;;9.80;;
19087;SDS011;9676;50.916;13.352;2023-04-06T00:16:57;10.70;;;9.80;;
19087;SDS011;9676;50.916;13.352;2023-04-06T00:19:47;11.03;;;10.00;;
19087;SDS011;9676;50.916;13.352;2023-04-06T00:22:36;10.80;;;9.90;;
19087;SDS011;9676;50.916;13.352;2023-04-06T00:25:25;10.73;;;9.83;;
19087;SDS011;9676;50.916;13.352;2023-04-06T00:28:15;11.20;;;10.20;;
19087;SDS011;9676;50.916;13.352;2023-04-06T00:31:06;11.00;;;10.00;;
19087;SDS011;9676;50.916;13.352;2023-04-06T00:33:55;11.53;;;10.33;;
19087;SDS011;9676;50.916;13.352;2023-04-06T00:36:46;11.60;;;10.50;;
19087;SDS011;9676;50.916;13.352;2023-04-06T00:39:35;11.07;;;10.10;;
19087;SDS011;9676;50.916;13.352;2023-04-06T00:42:25;11.70;;;10.60;;
19087;SDS011;9676;50.916;13.352;2023-04-06T00:45:14;11.43;;;10.33;;
19087;SDS011;9676;50.916;13.352;2023-04-06T00:48:05;11.80;;;10.70;;
19087;SDS011;9676;50.916;13.352;2023-04-06T00:50:55;11.13;;;10.23;;
19087;SDS011;9676;50.916;13.352;2023-04-06T00:53:44;11.37;;;10.33;;
19087;SDS011;9676;50.916;13.352;2023-04-06T00:56:34;10.90;;;10.00;;
19087;SDS011;9676;50.916;13.352;2023-04-06T00:59:24;11.90;;;10.77;;
19087;SDS011;9676;50.916;13.352;2023-04-06T01:02:15;11.07;;;10.07;;
19087;SDS011;9676;50.916;13.352;2023-04-06T01:05:09;12.53;;;10.83;;
19087;SDS011;9676;50.916;13.352;2023-04-06T01:08:09;11.13;;;10.17;;
19087;SDS011;9676;50.916;13.352;2023-04-06T01:10:59;10.90;;;10.00;;
19087;SDS011;9676;50.916;13.352;2023-04-06T01:13:50;10.90;;;10.00;;
19087;SDS011;9676;50.916;13.352;2023-04-06T01:16:48;10.73;;;9.83;;
19087;SDS011;9676;50.916;13.352;2023-04-06T01:19:41;10.63;;;9.70;;
19087;SDS011;9676;50.916;13.352;2023-04-06T01:22:41;11.03;;;10.10;;
19087;SDS011;9676;50.916;13.352;2023-04-06T01:25:32;10.97;;;9.87;;
19087;SDS011;9676;50.916;13.352;2023-04-06T01:28:27;10.60;;;9.70;;
19087;SDS011;9676;50.916;13.352;2023-04-06T01:31:27;10.40;;;9.60;;
19087;SDS011;9676;50.916;13.352;2023-04-06T01:34:17;10.50;;;9.60;;
19087;SDS011;9676;50.916;13.352;2023-04-06T01:37:07;10.63;;;9.70;;
19087;SDS011;9676;50.916;13.352;2023-04-06T01:39:59;10.90;;;10.00;;
19087;SDS011;9676;50.916;13.352;2023-04-06T01:43:01;11.00;;;10.00;;
19087;SDS011;9676;50.916;13.352;2023-04-06T01:45:56;11.23;;;10.23;;
19087;SDS011;9676;50.916;13.352;2023-04-06T01:48:51;11.10;;;10.10;;
19087;SDS011;9676;50.916;13.352;2023-04-06T01:51:50;11.20;;;10.20;;
19087;SDS011;9676;50.916;13.352;2023-04-06T01:54:40;11.17;;;10.17;;
19087;SDS011;9676;50.916;13.352;2023-04-06T01:57:51;11.17;;;10.17;;
19087;SDS011;9676;50.916;13.352;2023-04-06T02:00:51;11.90;;;10.90;;
19087;SDS011;9676;50.916;13.352;2023-04-06T02:03:41;11.60;;;10.40;;
19087;SDS011;9676;50.916;13.352;2023-04-06T02:06:32;11.47;;;10.43;;
19087;SDS011;9676;50.916;13.352;2023-04-06T02:09:24;10.70;;;9.80;;
19087;SDS011;9676;50.916;13.352;2023-04-06T02:12:14;10.90;;;10.00;;
19087;SDS011;9676;50.916;13.352;2023-04-06T02:15:05;11.40;;;10.37;;
19087;SDS011;9676;50.916;13.352;2023-04-06T02:17:56;11.43;;;10.33;;
19087;SDS011;9676;50.916;13.352;2023-04-06T02:20:47;11.03;;;10.10;;
19087;SDS011;9676;50.916;13.352;2023-04-06T02:23:36;11.10;;;10.10;;
19087;SDS011;9676;50.916;13.352;2023-04-06T02:26:27;11.10;;;10.00;;
19087;SDS011;9676;50.916;13.352;2023-04-06T02:29:17;11.17;;;10.17;;
19087;SDS011;9676;50.916;13.352;2023-04-06T02:32:07;11.20;;;10.20;;
19087;SDS011;9676;50.916;13.352;2023-04-06T02:34:57;11.53;;;10.53;;
19087;SDS011;9676;50.916;13.352;2023-04-06T02:37:47;11.10;;;10.10;;
19087;SDS011;9676;50.916;13.352;2023-04-06T02:40:36;11.20;;;10.20;;
19087;SDS011;9676;50.916;13.352;2023-04-06T02:43:39;10.90;;;10.00;;
19087;SDS011;9676;50.916;13.352;2023-04-06T02:46:36;11.57;;;10.53;;
19087;SDS011;9676;50.916;13.352;2023-04-06T02:49:27;11.20;;;10.20;;
19087;SDS011;9676;50.916;13.352;2023-04-06T02:52:18;11.87;;;10.80;;
19087;SDS011;9676;50.916;13.352;2023-04-06T02:55:08;11.30;;;10.30;;
19087;SDS011;9676;50.916;13.352;2023-04-06T02:57:58;11.20;;;10.20;;
19087;SDS011;9676;50.916;13.352;2023-04-06T03:00:54;11.97;;;10.73;;
19087;SDS011;9676;50.916;13.352;2023-04-06T03:03:44;11.27;;;10.17;;
19087;SDS011;9676;50.916;13.352;2023-04-06T03:06:43;11.10;;;10.10;;
19087;SDS011;9676;50.916;13.352;2023-04-06T03:09:42;11.40;;;10.40;;
19087;SDS011;9676;50.916;13.352;2023-04-06T03:12:31;11.90;;;10.80;;
19087;SDS011;9676;50.916;13.352;2023-04-06T03:15:40;11.40;;;10.40;;
19087;SDS011;9676;50.916;13.352;2023-04-06T03:18:36;11.87;;;10.70;;
19087;SDS011;9676;50.916;13.352;2023-04-06T03:21:26;11.77;;;10.67;;
19087;SDS011;9676;50.916;13.352;2023-04-06T03:24:16;11.00;;;10.00;;
19087;SDS011;9676;50.916;13.352;2023-04-06T03:27:06;12.20;;;11.10;;
19087;SDS011;9676;50.916;13.352;2023-04-06T03:29:55;11.70;;;10.60;;
19087;SDS011;9676;50.916;13.352;2023-04-06T03:32:51;11.40;;;10.30;;
19087;SDS011;9676;50.916;13.352;2023-04-06T03:35:43;11.70;;;10.60;;
19087;SDS011;9676;50.916;13.352;2023-04-06T03:38:32;11.17;;;10.27;;
19087;SDS011;9676;50.916;13.352;2023-04-06T03:41:29;11.03;;;10.10;;
19087;SDS011;9676;50.916;13.352;2023-04-06T03:44:46;11.17;;;10.17;;
19087;SDS011;9676;50.916;13.352;2023-04-06T03:47:36;11.50;;;10.40;;
19087;SDS011;9676;50.916;13.352;2023-04-06T03:50:27;11.43;;;10.43;;
19087;SDS011;9676;50.916;13.352;2023-04-06T03:53:17;11.60;;;10.50;;
19087;SDS011;9676;50.916;13.352;2023-04-06T03:56:06;10.90;;;10.00;;
19087;SDS011;9676;50.916;13.352;2023-04-06T03:58:57;11.03;;;10.03;;
19087;SDS011;9676;50.916;13.352;2023-04-06T04:01:47;11.70;;;10.60;;
19087;SDS011;9676;50.916;13.352;2023-04-06T04:04:36;11.50;;;10.50;;
19087;SDS011;9676;50.916;13.352;2023-04-06T04:07:26;11.20;;;10.20;;
19087;SDS011;9676;50.916;13.352;2023-04-06T04:10:16;11.53;;;10.30;;
19087;SDS011;9676;50.916;13.352;2023-04-06T04:13:06;11.07;;;10.13;;
19087;SDS011;9676;50.916;13.352;2023-04-06T04:15:57;11.20;;;10.20;;
19087;SDS011;9676;50.916;13.352;2023-04-06T04:18:47;12.43;;;11.13;;
19087;SDS011;9676;50.916;13.352;2023-04-06T04:21:42;12.20;;;11.00;;
19087;SDS011;9676;50.916;13.352;2023-04-06T04:24:36;11.70;;;10.60;;
19087;SDS011;9676;50.916;13.352;2023-04-06T04:27:26;11.97;;;10.83;;
19087;SDS011;9676;50.916;13.352;2023-04-06T04:30:15;11.20;;;10.30;;
19087;SDS011;9676;50.916;13.352;2023-04-06T04:33:07;11.27;;;10.30;;
19087;SDS011;9676;50.916;13.352;2023-04-06T04:35:57;11.70;;;10.60;;
19087;SDS011;9676;50.916;13.352;2023-04-06T04:38:51;11.87;;;10.77;;
19087;SDS011;9676;50.916;13.352;2023-04-06T04:41:42;11.43;;;10.43;;
19087;SDS011;9676;50.916;13.352;2023-04-06T04:44:32;11.30;;;10.30;;
19087;SDS011;9676;50.916;13.352;2023-04-06T04:47:23;12.17;;;10.93;;
19087;SDS011;9676;50.916;13.352;2023-04-06T04:50:14;11.90;;;10.70;;
19087;SDS011;9676;50.916;13.352;2023-04-06T04:53:06;13.53;;;10.70;;
19087;SDS011;9676;50.916;13.352;2023-04-06T04:55:55;13.03;;;11.20;;
19087;SDS011;9676;50.916;13.352;2023-04-06T04:58:47;11.70;;;10.60;;
19087;SDS011;9676;50.916;13.352;2023-04-06T05:01:37;12.03;;;10.93;;
19087;SDS011;9676;50.916;13.352;2023-04-06T05:04:44;12.17;;;11.03;;
19087;SDS011;9676;50.916;13.352;2023-04-06T05:07:41;11.83;;;10.73;;
19087;SDS011;9676;50.916;13.352;2023-04-06T05:10:38;12.20;;;11.10;;
19087;SDS011;9676;50.916;13.352;2023-04-06T05:13:29;11.50;;;10.50;;
19087;SDS011;9676;50.916;13.352;2023-04-06T05:16:21;11.77;;;10.67;;
19087;SDS011;9676;50.916;13.352;2023-04-06T05:19:11;11.70;;;10.70;;
19087;SDS011;9676;50.916;13.352;2023-04-06T05:22:03;12.00;;;10.80;;
19087;SDS011;9676;50.916;13.352;2023-04-06T05:24:57;12.00;;;10.90;;
19087;SDS011;9676;50.916;13.352;2023-04-06T05:27:46;12.03;;;10.90;;
19087;SDS011;9676;50.916;13.352;2023-04-06T05:30:51;10.80;;;9.90;;
19087;SDS011;9676;50.916;13.352;2023-04-06T05:33:41;11.53;;;10.43;;
19087;SDS011;9676;50.916;13.352;2023-04-06T05:36:34;11.47;;;10.43;;
19087;SDS011;9676;50.916;13.352;2023-04-06T05:39:33;14.13;;;11.40;;
19087;SDS011;9676;50.916;13.352;2023-04-06T05:42:24;11.77;;;10.57;;
19087;SDS011;9676;50.916;13.352;2023-04-06T05:45:18;13.03;;;10.80;;
19087;SDS011;9676;50.916;13.352;2023-04-06T05:48:13;11.30;;;10.20;;
19087;SDS011;9676;50.916;13.352;2023-04-06T05:51:02;11.80;;;10.40;;
19087;SDS011;9676;50.916;13.352;2023-04-06T05:54:02;11.67;;;10.50;;
19087;SDS011;9676;50.916;13.352;2023-04-06T05:56:53;11.03;;;10.07;;
19087;SDS011;9676;50.916;13.352;2023-04-06T05:59:43;11.30;;;10.30;;
19087;SDS011;9676;50.916;13.352;2023-04-06T06:02:35;12.20;;;11.00;;
19087;SDS011;9676;50.916;13.352;2023-04-06T06:05:25;11.90;;;10.80;;
19087;SDS011;9676;50.916;13.352;2023-04-06T06:08:16;11.80;;;10.70;;
19087;SDS011;9676;50.916;13.352;2023-04-06T06:11:07;11.37;;;10.20;;
19087;SDS011;9676;50.916;13.352;2023-04-06T06:13:57;12.03;;;10.93;;
19087;SDS011;9676;50.916;13.352;2023-04-06T06:16:53;11.80;;;10.60;;
19087;SDS011;9676;50.916;13.352;2023-04-06T06:19:47;11.90;;;10.70;;
19087;SDS011;9676;50.916;13.352;2023-04-06T06:22:36;11.60;;;10.40;;
19087;SDS011;9676;50.916;13.352;2023-04-06T06:25:31;11.57;;;10.47;;
19087;SDS011;9676;50.916;13.352;2023-04-06T06:28:22;11.80;;;10.70;;
19087;SDS011;9676;50.916;13.352;2023-04-06T06:31:13;11.90;;;10.80;;
19087;SDS011;9676;50.916;13.352;2023-04-06T06:34:05;12.03;;;10.90;;
19087;SDS011;9676;50.916;13.352;2023-04-06T06:36:56;11.23;;;10.13;;
19087;SDS011;9676;50.916;13.352;2023-04-06T06:39:46;11.13;;;10.13;;
19087;SDS011;9676;50.916;13.352;2023-04-06T06:42:35;11.73;;;10.63;;
19087;SDS011;9676;50.916;13.352;2023-04-06T06:45:34;11.00;;;10.00;;
19087;SDS011;9676;50.916;13.352;2023-04-06T06:48:24;11.23;;;10.23;;
19087;SDS011;9676;50.916;13.352;2023-04-06T06:51:15;12.83;;;10.50;;
19087;SDS011;9676;50.916;13.352;2023-04-06T06:54:05;11.57;;;10.30;;
19087;SDS011;9676;50.916;13.352;2023-04-06T06:56:55;11.13;;;10.13;;
19087;SDS011;9676;50.916;13.352;2023-04-06T06:59:45;11.13;;;10.13;;
19087;SDS011;9676;50.916;13.352;2023-04-06T07:02:35;11.33;;;10.23;;
19087;SDS011;9676;50.916;13.352;2023-04-06T07:05:25;11.40;;;10.30;;
19087;SDS011;9676;50.916;13.352;2023-04-06T07:08:19;10.87;;;9.80;;
19087;SDS011;9676;50.916;13.352;2023-04-06T07:11:09;13.50;;;10.17;;
19087;SDS011;9676;50.916;13.352;2023-04-06T07:13:58;11.17;;;10.10;;
19087;SDS011;9676;50.916;13.352;2023-04-06T07:16:48;11.10;;;10.00;;
19087;SDS011;9676;50.916;13.352;2023-04-06T07:19:38;11.67;;;9.90;;
19087;SDS011;9676;50.916;13.352;2023-04-06T07:22:28;11.03;;;9.93;;
19087;SDS011;9676;50.916;13.352;2023-04-06T07:25:19;11.40;;;9.67;;
19087;SDS011;9676;50.916;13.352;2023-04-06T07:28:12;10.40;;;9.43;;
19087;SDS011;9676;50.916;13.352;2023-04-06T07:31:02;11.27;;;9.70;;
19087;SDS011;9676;50.916;13.352;2023-04-06T07:33:51;10.20;;;9.20;;
19087;SDS011;9676;50.916;13.352;2023-04-06T07:36:41;10.67;;;9.47;;
19087;SDS011;9676;50.916;13.352;2023-04-06T07:39:30;10.20;;;9.20;;
19087;SDS011;9676;50.916;13.352;2023-04-06T07:42:21;10.57;;;9.47;;
19087;SDS011;9676;50.916;13.352;2023-04-06T07:45:11;10.53;;;9.53;;
19087;SDS011;9676;50.916;13.352;2023-04-06T07:48:03;10.60;;;9.50;;
19087;SDS011;9676;50.916;13.352;2023-04-06T07:51:00;10.30;;;9.30;;
19087;SDS011;9676;50.916;13.352;2023-04-06T07:53:52;9.90;;;8.90;;
19087;SDS011;9676;50.916;13.352;2023-04-06T07:56:42;10.27;;;9.37;;
19087;SDS011;9676;50.916;13.352;2023-04-06T07:59:32;10.60;;;9.60;;
19087;SDS011;9676;50.916;13.352;2023-04-06T08:02:22;10.73;;;9.63;;
19087;SDS011;9676;50.916;13.352;2023-04-06T08:05:12;9.90;;;9.00;;
19087;SDS011;9676;50.916;13.352;2023-04-06T08:08:01;10.30;;;9.30;;
19087;SDS011;9676;50.916;13.352;2023-04-06T08:10:51;10.50;;;9.50;;
19087;SDS011;9676;50.916;13.352;2023-04-06T08:13:40;11.80;;;9.80;;
19087;SDS011;9676;50.916;13.352;2023-04-06T08:16:31;10.70;;;9.60;;
19087;SDS011;9676;50.916;13.352;2023-04-06T08:19:20;10.60;;;9.60;;
19087;SDS011;9676;50.916;13.352;2023-04-06T08:22:11;10.70;;;9.70;;
19087;SDS011;9676;50.916;13.352;2023-04-06T08:25:03;11.00;;;9.90;;
19087;SDS011;9676;50.916;13.352;2023-04-06T08:27:53;10.57;;;9.57;;
19087;SDS011;9676;50.916;13.352;2023-04-06T08:30:44;11.20;;;10.20;;
19087;SDS011;9676;50.916;13.352;2023-04-06T08:33:35;10.93;;;9.93;;
19087;SDS011;9676;50.916;13.352;2023-04-06T08:36:26;10.93;;;9.83;;
19087;SDS011;9676;50.916;13.352;2023-04-06T08:39:16;11.37;;;10.17;;
19087;SDS011;9676;50.916;13.352;2023-04-06T08:42:12;11.33;;;10.10;;
19087;SDS011;9676;50.916;13.352;2023-04-06T08:45:09;10.90;;;9.80;;
19087;SDS011;9676;50.916;13.352;2023-04-06T08:47:59;10.80;;;9.80;;
19087;SDS011;9676;50.916;13.352;2023-04-06T08:50:50;10.83;;;9.73;;
19087;SDS011;9676;50.916;13.352;2023-04-06T08:53:40;11.07;;;10.07;;
19087;SDS011;9676;50.916;13.352;2023-04-06T08:56:30;10.73;;;9.63;;
19087;SDS011;9676;50.916;13.352;2023-04-06T08:59:20;10.50;;;9.60;;
19087;SDS011;9676;50.916;13.352;2023-04-06T09:02:10;10.27;;;9.37;;
19087;SDS011;9676;50.916;13.352;2023-04-06T09:05:05;10.20;;;9.30;;
19087;SDS011;9676;50.916;13.352;2023-04-06T09:07:57;10.70;;;9.70;;
19087;SDS011;9676;50.916;13.352;2023-04-06T09:10:47;11.07;;;9.97;;
19087;SDS011;9676;50.916;13.352;2023-04-06T09:13:45;10.70;;;9.70;;
19087;SDS011;9676;50.916;13.352;2023-04-06T09:16:38;11.00;;;9.90;;
19087;SDS011;9676;50.916;13.352;2023-04-06T09:19:29;11.30;;;10.20;;
19087;SDS011;9676;50.916;13.352;2023-04-06T09:22:18;11.10;;;10.10;;
19087;SDS011;9676;50.916;13.352;2023-04-06T09:25:10;10.67;;;9.60;;
19087;SDS011;9676;50.916;13.352;2023-04-06T09:28:08;10.80;;;9.80;;
19087;SDS011;9676;50.916;13.352;2023-04-06T09:30:57;10.67;;;9.67;;
19087;SDS011;9676;50.916;13.352;2023-04-06T09:33:47;11.43;;;10.33;;
19087;SDS011;9676;50.916;13.352;2023-04-06T09:36:37;10.90;;;9.90;;
19087;SDS011;9676;50.916;13.352;2023-04-06T09:39:28;10.77;;;9.70;;
19087;SDS011;9676;50.916;13.352;2023-04-06T09:42:24;10.67;;;9.67;;
19087;SDS011;9676;50.916;13.352;2023-04-06T09:45:14;10.30;;;9.40;;
19087;SDS011;9676;50.916;13.352;2023-04-06T09:48:04;10.20;;;9.20;;
19087;SDS011;9676;50.916;13.352;2023-04-06T09:50:55;9.80;;;8.90;;
19087;SDS011;9676;50.916;13.352;2023-04-06T09:53:52;10.27;;;9.33;;
19087;SDS011;9676;50.916;13.352;2023-04-06T09:56:50;10.33;;;9.20;;
19087;SDS011;9676;50.916;13.352;2023-04-06T09:59:48;13.83;;;9.30;;
19087;SDS011;9676;50.916;13.352;2023-04-06T10:02:49;10.20;;;9.20;;
19087;SDS011;9676;50.916;13.352;2023-04-06T10:05:46;14.13;;;9.70;;
19087;SDS011;9676;50.916;13.352;2023-04-06T10:08:39;12.17;;;10.97;;
19087;SDS011;9676;50.916;13.352;2023-04-06T10:11:30;11.30;;;10.10;;
19087;SDS011;9676;50.916;13.352;2023-04-06T10:14:19;11.23;;;10.13;;
19087;SDS011;9676;50.916;13.352;2023-04-06T10:17:10;10.90;;;9.90;;
19087;SDS011;9676;50.916;13.352;2023-04-06T10:20:02;10.80;;;9.70;;
19087;SDS011;9676;50.916;13.352;2023-04-06T10:22:58;10.20;;;9.30;;
19087;SDS011;9676;50.916;13.352;2023-04-06T10:25:54;10.67;;;9.67;;
19087;SDS011;9676;50.916;13.352;2023-04-06T10:28:45;10.40;;;9.40;;
19087;SDS011;9676;50.916;13.352;2023-04-06T10:31:39;10.40;;;9.40;;
19087;SDS011;9676;50.916;13.352;2023-04-06T10:34:35;10.53;;;9.20;;
19087;SDS011;9676;50.916;13.352;2023-04-06T10:37:25;9.90;;;8.93;;
19087;SDS011;9676;50.916;13.352;2023-04-06T10:40:23;9.53;;;8.73;;
19087;SDS011;9676;50.916;13.352;2023-04-06T10:43:18;9.40;;;8.50;;
19087;SDS011;9676;50.916;13.352;2023-04-06T10:46:10;10.00;;;8.90;;
19087;SDS011;9676;50.916;13.352;2023-04-06T10:49:09;9.47;;;8.57;;
19087;SDS011;9676;50.916;13.352;2023-04-06T10:52:01;9.30;;;8.50;;
19087;SDS011;9676;50.916;13.352;2023-04-06T10:54:50;9.47;;;8.57;;
19087;SDS011;9676;50.916;13.352;2023-04-06T10:57:42;9.47;;;8.57;;
19087;SDS011;9676;50.916;13.352;2023-04-06T11:00:31;9.73;;;8.73;;
19087;SDS011;9676;50.916;13.352;2023-04-06T11:03:42;9.90;;;9.00;;
19087;SDS011;9676;50.916;13.352;2023-04-06T11:06:33;9.77;;;8.80;;
19087;SDS011;9676;50.916;13.352;2023-04-06T11:09:24;10.97;;;8.80;;
19087;SDS011;9676;50.916;13.352;2023-04-06T11:12:20;10.33;;;9.23;;
19087;SDS011;9676;50.916;13.352;2023-04-06T11:15:12;10.47;;;9.47;;
19087;SDS011;9676;50.916;13.352;2023-04-06T11:18:03;10.30;;;9.30;;
19087;SDS011;9676;50.916;13.352;2023-04-06T11:20:53;10.23;;;9.30;;
19087;SDS011;9676;50.916;13.352;2023-04-06T11:23:42;10.80;;;9.70;;
19087;SDS011;9676;50.916;13.352;2023-04-06T11:26:37;10.60;;;9.60;;
19087;SDS011;9676;50.916;13.352;2023-04-06T11:29:32;10.80;;;9.57;;
19087;SDS011;9676;50.916;13.352;2023-04-06T11:32:24;10.43;;;9.33;;
19087;SDS011;9676;50.916;13.352;2023-04-06T11:35:19;10.63;;;9.63;;
19087;SDS011;9676;50.916;13.352;2023-04-06T11:38:10;10.43;;;9.43;;
19087;SDS011;9676;50.916;13.352;2023-04-06T11:41:00;10.93;;;9.83;;
19087;SDS011;9676;50.916;13.352;2023-04-06T11:43:54;11.10;;;10.10;;
19087;SDS011;9676;50.916;13.352;2023-04-06T11:46:51;11.43;;;10.23;;
19087;SDS011;9676;50.916;13.352;2023-04-06T11:49:41;10.63;;;9.67;;
19087;SDS011;9676;50.916;13.352;2023-04-06T11:52:33;10.30;;;9.40;;
19087;SDS011;9676;50.916;13.352;2023-04-06T11:55:22;11.20;;;10.20;;
19087;SDS011;9676;50.916;13.352;2023-04-06T11:58:12;10.80;;;9.80;;
19087;SDS011;9676;50.916;13.352;2023-04-06T12:01:06;10.87;;;9.90;;
19087;SDS011;9676;50.916;13.352;2023-04-06T12:03:56;11.20;;;10.20;;
19087;SDS011;9676;50.916;13.352;2023-04-06T12:06:46;10.87;;;9.77;;
19087;SDS011;9676;50.916;13.352;2023-04-06T12:09:36;10.90;;;9.90;;
19087;SDS011;9676;50.916;13.352;2023-04-06T12:12:26;10.77;;;9.77;;
19087;SDS011;9676;50.916;13.352;2023-04-06T12:15:16;11.00;;;9.90;;
19087;SDS011;9676;50.916;13.352;2023-04-06T12:18:07;11.20;;;10.13;;
19087;SDS011;9676;50.916;13.352;2023-04-06T12:20:56;11.50;;;10.50;;
19087;SDS011;9676;50.916;13.352;2023-04-06T12:23:45;11.00;;;10.00;;
19087;SDS011;9676;50.916;13.352;2023-04-06T12:26:35;11.63;;;10.60;;
19087;SDS011;9676;50.916;13.352;2023-04-06T12:29:25;11.63;;;10.53;;
19087;SDS011;9676;50.916;13.352;2023-04-06T12:32:14;11.30;;;10.20;;
19087;SDS011;9676;50.916;13.352;2023-04-06T12:35:05;11.70;;;10.60;;
19087;SDS011;9676;50.916;13.352;2023-04-06T12:37:58;11.37;;;10.27;;
19087;SDS011;9676;50.916;13.352;2023-04-06T12:40:48;11.40;;;10.27;;
19087;SDS011;9676;50.916;13.352;2023-04-06T12:43:38;11.27;;;10.17;;
19087;SDS011;9676;50.916;13.352;2023-04-06T12:46:29;10.83;;;9.80;;
19087;SDS011;9676;50.916;13.352;2023-04-06T12:49:19;10.50;;;9.60;;
19087;SDS011;9676;50.916;13.352;2023-04-06T12:52:10;10.90;;;10.00;;
19087;SDS011;9676;50.916;13.352;2023-04-06T12:55:00;11.00;;;9.90;;
19087;SDS011;9676;50.916;13.352;2023-04-06T12:57:50;11.00;;;10.00;;
19087;SDS011;9676;50.916;13.352;2023-04-06T13:00:39;11.00;;;10.00;;
19087;SDS011;9676;50.916;13.352;2023-04-06T13:03:28;11.00;;;9.90;;
19087;SDS011;9676;50.916;13.352;2023-04-06T13:06:18;10.97;;;10.00;;
19087;SDS011;9676;50.916;13.352;2023-04-06T13:09:09;11.60;;;10.50;;
19087;SDS011;9676;50.916;13.352;2023-04-06T13:11:58;11.30;;;10.30;;
19087;SDS011;9676;50.916;13.352;2023-04-06T13:14:48;11.10;;;10.10;;
19087;SDS011;9676;50.916;13.352;2023-04-06T13:17:39;11.07;;;10.07;;
19087;SDS011;9676;50.916;13.352;2023-04-06T13:20:29;10.60;;;9.70;;
19087;SDS011;9676;50.916;13.352;2023-04-06T13:23:18;11.43;;;10.30;;
19087;SDS011;9676;50.916;13.352;2023-04-06T13:26:09;10.70;;;9.70;;
19087;SDS011;9676;50.916;13.352;2023-04-06T13:29:00;11.30;;;10.30;;
19087;SDS011;9676;50.916;13.352;2023-04-06T13:31:50;11.17;;;10.07;;
19087;SDS011;9676;50.916;13.352;2023-04-06T13:34:39;10.60;;;9.67;;
19087;SDS011;9676;50.916;13.352;2023-04-06T13:37:32;10.90;;;9.93;;
19087;SDS011;9676;50.916;13.352;2023-04-06T13:40:21;11.07;;;10.07;;
19087;SDS011;9676;50.916;13.352;2023-04-06T13:43:12;11.60;;;10.53;;
19087;SDS011;9676;50.916;13.352;2023-04-06T13:46:02;10.70;;;9.80;;
19087;SDS011;9676;50.916;13.352;2023-04-06T13:48:52;11.13;;;10.10;;
19087;SDS011;9676;50.916;13.352;2023-04-06T13:51:42;11.30;;;10.30;;
19087;SDS011;9676;50.916;13.352;2023-04-06T13:54:31;11.00;;;10.10;;
19087;SDS011;9676;50.916;13.352;2023-04-06T13:57:21;11.17;;;10.17;;
19087;SDS011;9676;50.916;13.352;2023-04-06T14:00:12;10.33;;;9.50;;
19087;SDS011;9676;50.916;13.352;2023-04-06T14:03:03;10.80;;;9.90;;
19087;SDS011;9676;50.916;13.352;2023-04-06T14:05:52;10.50;;;9.60;;
19087;SDS011;9676;50.916;13.352;2023-04-06T14:08:44;10.90;;;9.93;;
19087;SDS011;9676;50.916;13.352;2023-04-06T14:11:34;11.20;;;10.10;;
19087;SDS011;9676;50.916;13.352;2023-04-06T14:14:25;10.50;;;9.60;;
19087;SDS011;9676;50.916;13.352;2023-04-06T14:17:16;10.87;;;9.90;;
19087;SDS011;9676;50.916;13.352;2023-04-06T14:20:06;11.17;;;10.17;;
19087;SDS011;9676;50.916;13.352;2023-04-06T14:23:01;11.40;;;10.40;;
19087;SDS011;9676;50.916;13.352;2023-04-06T14:25:51;11.37;;;10.17;;
19087;SDS011;9676;50.916;13.352;2023-04-06T14:28:44;11.20;;;10.20;;
19087;SDS011;9676;50.916;13.352;2023-04-06T14:31:34;10.73;;;9.77;;
19087;SDS011;9676;50.916;13.352;2023-04-06T14:34:25;10.90;;;9.90;;
19087;SDS011;9676;50.916;13.352;2023-04-06T14:37:15;11.13;;;10.13;;
19087;SDS011;9676;50.916;13.352;2023-04-06T14:40:06;11.70;;;10.20;;
19087;SDS011;9676;50.916;13.352;2023-04-06T14:42:56;11.17;;;10.17;;
19087;SDS011;9676;50.916;13.352;2023-04-06T14:45:46;10.97;;;10.00;;
19087;SDS011;9676;50.916;13.352;2023-04-06T14:48:35;11.17;;;10.17;;
19087;SDS011;9676;50.916;13.352;2023-04-06T14:51:26;11.40;;;10.40;;
19087;SDS011;9676;50.916;13.352;2023-04-06T14:54:16;11.50;;;10.50;;
19087;SDS011;9676;50.916;13.352;2023-04-06T14:57:05;11.00;;;10.00;;
19087;SDS011;9676;50.916;13.352;2023-04-06T14:59:54;11.03;;;10.03;;
19087;SDS011;9676;50.916;13.352;2023-04-06T15:02:44;10.93;;;9.97;;
19087;SDS011;9676;50.916;13.352;2023-04-06T15:05:33;11.67;;;10.57;;
19087;SDS011;9676;50.916;13.352;2023-04-06T15:08:24;11.73;;;10.73;;
19087;SDS011;9676;50.916;13.352;2023-04-06T15:11:14;11.10;;;10.10;;
19087;SDS011;9676;50.916;13.352;2023-04-06T15:14:03;11.23;;;10.23;;
19087;SDS011;9676;50.916;13.352;2023-04-06T15:16:54;13.20;;;10.77;;
19087;SDS011;9676;50.916;13.352;2023-04-06T15:19:44;11.53;;;10.53;;
19087;SDS011;9676;50.916;13.352;2023-04-06T15:22:33;14.03;;;10.83;;
19087;SDS011;9676;50.916;13.352;2023-04-06T15:25:24;11.50;;;10.50;;
19087;SDS011;9676;50.916;13.352;2023-04-06T15:28:13;11.20;;;10.20;;
19087;SDS011;9676;50.916;13.352;2023-04-06T15:31:03;11.40;;;10.40;;
19087;SDS011;9676;50.916;13.352;2023-04-06T15:34:10;11.20;;;10.30;;
19087;SDS011;9676;50.916;13.352;2023-04-06T15:37:00;11.20;;;10.20;;
19087;SDS011;9676;50.916;13.352;2023-04-06T15:39:51;13.83;;;10.57;;
19087;SDS011;9676;50.916;13.352;2023-04-06T15:42:41;11.50;;;10.40;;
19087;SDS011;9676;50.916;13.352;2023-04-06T15:45:31;11.47;;;10.30;;
19087;SDS011;9676;50.916;13.352;2023-04-06T15:48:21;11.87;;;10.67;;
19087;SDS011;9676;50.916;13.352;2023-04-06T15:51:11;11.23;;;10.20;;
19087;SDS011;9676;50.916;13.352;2023-04-06T15:54:01;11.20;;;10.20;;
19087;SDS011;9676;50.916;13.352;2023-04-06T15:56:50;11.90;;;10.80;;
19087;SDS011;9676;50.916;13.352;2023-04-06T15:59:41;10.87;;;9.97;;
19087;SDS011;9676;50.916;13.352;2023-04-06T16:02:31;11.63;;;10.53;;
19087;SDS011;9676;50.916;13.352;2023-04-06T16:05:20;11.20;;;10.20;;
19087;SDS011;9676;50.916;13.352;2023-04-06T16:08:10;11.40;;;10.40;;
19087;SDS011;9676;50.916;13.352;2023-04-06T16:11:00;11.70;;;10.60;;
19087;SDS011;9676;50.916;13.352;2023-04-06T16:13:50;11.80;;;10.20;;
19087;SDS011;9676;50.916;13.352;2023-04-06T16:16:43;11.90;;;10.80;;
19087;SDS011;9676;50.916;13.352;2023-04-06T16:19:33;11.63;;;10.63;;
19087;SDS011;9676;50.916;13.352;2023-04-06T16:22:22;11.57;;;10.50;;
19087;SDS011;9676;50.916;13.352;2023-04-06T16:25:11;11.47;;;10.47;;
19087;SDS011;9676;50.916;13.352;2023-04-06T16:28:01;12.10;;;10.90;;
19087;SDS011;9676;50.916;13.352;2023-04-06T16:30:50;11.70;;;10.67;;
19087;SDS011;9676;50.916;13.352;2023-04-06T16:33:41;11.83;;;10.73;;
19087;SDS011;9676;50.916;13.352;2023-04-06T16:36:30;11.57;;;10.57;;
19087;SDS011;9676;50.916;13.352;2023-04-06T16:39:20;12.07;;;11.07;;
19087;SDS011;9676;50.916;13.352;2023-04-06T16:42:09;12.30;;;11.20;;
19087;SDS011;9676;50.916;13.352;2023-04-06T16:44:59;11.68;;;10.57;;
19087;SDS011;9676;50.916;13.352;2023-04-06T16:47:48;13.23;;;11.50;;
19087;SDS011;9676;50.916;13.352;2023-04-06T16:50:39;12.50;;;11.30;;